Time;durP1;ratioP1;P1;durP2;ratioP2;P2;SDS_P1;SDS_P2;PMS_P1;PMS_P2;Temp;Humidity;BMP_temperature;BMP_pressure;BME280_temperature;BME280_humidity;BME280_pressure;Samples;Min_cycle;Max_cycle;Signal;HPM_P1;HPM_P2
2023/01/06 11:36:47;;;;;;;8.63;3.00;;;;;;;0.46;70.41;101256.66;2128879;27;20783;-67
2023/01/06 11:37:58;;;;;;;12.30;3.20;;;;;;;0.46;70.29;101253.19;2110021;28;21073;-67
2023/01/06 11:39:03;;;;;;;4.77;1.60;;;;;;;0.46;70.54;101255.84;2114218;27;20281;-67
2023/01/06 11:40:19;;;;;;;5.67;2.60;;;;;;;0.46;70.30;101254.00;2102723;28;20744;-69
2023/01/06 11:41:30;;;;;;;6.83;2.90;;;;;;;0.48;70.66;101245.88;2107983;28;20290;-68
2023/01/06 11:42:33;;;;;;;7.93;2.53;;;;;;;0.44;70.07;101244.63;2114743;27;20281;-68
2023/01/06 11:43:47;;;;;;;11.43;3.00;;;;;;;0.46;69.87;101230.19;2115566;28;20292;-71
2023/01/06 11:44:50;;;;;;;8.57;3.07;;;;;;;0.48;70.31;101245.06;2112682;28;20320;-69
2023/01/06 11:45:59;;;;;;;4.90;2.33;;;;;;;0.44;70.11;101234.03;2102699;28;21207;-69
2023/01/06 11:47:07;;;;;;;6.43;2.60;;;;;;;0.44;69.93;101223.44;2106345;27;20279;-68
2023/01/06 11:48:18;;;;;;;7.33;2.80;;;;;;;0.43;69.98;101227.13;2095397;28;20286;-68
2023/01/06 11:49:24;;;;;;;6.45;3.10;;;;;;;0.44;69.93;101226.94;2091887;28;20302;-68
2023/01/06 11:50:26;;;;;;;7.53;2.93;;;;;;;0.45;70.18;101230.41;2103840;28;20044;-68
2023/01/06 11:51:46;;;;;;;7.97;3.33;;;;;;;0.46;69.76;101227.53;2119839;27;20776;-68
2023/01/06 11:53:01;;;;;;;4.47;2.33;;;;;;;0.35;70.03;101219.34;2111541;28;20293;-68
2023/01/06 11:54:37;;;;;;;6.07;3.30;;;;;;;0.36;69.85;101220.97;2107733;28;20345;-68
2023/01/06 11:55:39;;;;;;;6.93;2.60;;;;;;;0.33;70.16;101227.47;2119634;27;20624;-68
2023/01/06 11:56:42;;;;;;;8.00;3.40;;;;;;;0.36;70.23;101210.41;2108350;28;20712;-68
2023/01/06 11:57:53;;;;;;;5.43;2.77;;;;;;;0.35;70.38;101214.88;2093203;28;20821;-68
2023/01/06 11:59:18;;;;;;;5.57;2.63;;;;;;;0.34;70.46;101213.22;2089506;28;20280;-68
2023/01/06 12:00:19;;;;;;;8.67;3.63;;;;;;;0.32;70.43;101215.25;2106682;27;20292;-67
2023/01/06 12:01:40;;;;;;;6.83;3.03;;;;;;;0.23;70.26;101200.56;2117244;27;20293;-68
2023/01/06 12:03:01;;;;;;;8.87;3.13;;;;;;;0.21;70.70;101213.16;2105785;28;20293;-68
2023/01/06 12:04:18;;;;;;;8.90;2.57;;;;;;;0.18;70.60;101198.47;2105487;28;20281;-68
2023/01/06 12:05:34;;;;;;;6.67;3.37;;;;;;;0.13;71.43;101203.56;2119891;27;20300;-68
2023/01/06 12:06:58;;;;;;;5.93;2.30;;;;;;;0.12;71.39;101201.09;2106757;28;20277;-68
2023/01/06 12:08:07;;;;;;;8.30;3.23;;;;;;;0.05;71.22;101192.31;2092005;28;20300;-68
2023/01/06 12:09:27;;;;;;;9.30;3.63;;;;;;;0.06;71.91;101197.38;2088783;28;20299;-68
2023/01/06 12:10:35;;;;;;;11.43;3.80;;;;;;;0.09;72.11;101189.06;2097261;28;20283;-68
2023/01/06 12:11:40;;;;;;;7.73;3.60;;;;;;;0.10;71.97;101188.06;2109204;28;20309;-68
2023/01/06 12:12:43;;;;;;;7.33;3.30;;;;;;;0.09;71.67;101186.41;2109038;28;20288;-68
2023/01/06 12:13:45;;;;;;;8.03;3.17;;;;;;;0.08;71.88;101187.44;2091752;28;20302;-68
2023/01/06 12:14:50;;;;;;;10.73;4.53;;;;;;;0.13;71.61;101187.69;2088053;28;20295;-68
2023/01/06 12:16:03;;;;;;;9.50;3.03;;;;;;;0.13;71.70;101181.59;2102564;28;20290;-68
2023/01/06 12:17:35;;;;;;;8.63;3.20;;;;;;;0.17;71.38;101180.19;2106590;28;20297;-68
2023/01/06 12:18:43;;;;;;;6.93;2.63;;;;;;;0.17;71.34;101181.00;2121502;27;20774;-68
2023/01/06 12:20:14;;;;;;;7.27;2.40;;;;;;;0.19;71.17;101186.91;2127544;27;20034;-68
2023/01/06 12:22:20;;;;;;;3.37;2.00;;;;;;;0.13;71.32;101177.09;2129529;27;20342;-70
2023/01/06 12:23:36;;;;;;;5.27;1.47;;;;;;;0.09;71.62;101181.13;2133279;27;20283;-70
2023/01/06 12:24:40;;;;;;;4.37;2.17;;;;;;;0.09;71.49;101178.50;2111019;28;20293;-69
2023/01/06 12:25:45;;;;;;;6.33;2.83;;;;;;;0.06;71.87;101168.28;2110499;27;20680;-70
2023/01/06 12:26:51;;;;;;;8.33;2.17;;;;;;;0.04;71.64;101165.06;2111899;28;20673;-70
2023/01/06 12:28:27;;;;;;;3.17;1.80;;;;;;;0.01;71.80;101160.16;2110736;27;20286;-70
2023/01/06 12:29:30;;;;;;;8.13;3.27;;;;;;;-0.02;71.91;101152.59;2118645;27;20285;-70
2023/01/06 12:30:49;;;;;;;7.80;3.07;;;;;;;0.02;72.35;101150.38;2126929;27;20284;-70
2023/01/06 12:32:07;;;;;;;7.83;3.37;;;;;;;0.07;72.29;101148.81;2115881;27;20261;-69
2023/01/06 12:33:45;;;;;;;6.10;2.30;;;;;;;0.03;71.90;101144.88;2102923;28;20404;-69
2023/01/06 12:34:50;;;;;;;5.90;3.10;;;;;;;-0.01;72.35;101141.00;2100091;28;20298;-69
